Time;durP1;ratioP1;P1;durP2;ratioP2;P2;SDS_P1;SDS_P2;PMS_P1;PMS_P2;Temp;Humidity;BMP_temperature;BMP_pressure;BME280_temperature;BME280_humidity;BME280_pressure;Samples;Min_cycle;Max_cycle;Signal;HPM_P1;HPM_P2
2023/10/20 00:00:20;;;;;;;26.83;18.00;;;;;;;;;;5069419;28;20125;-78
2023/10/20 00:02:46;;;;;;;24.92;17.77;;;;;;;;;;5075936;28;20040;-78
2023/10/20 00:05:13;;;;;;;26.25;18.42;;;;;;;;;;5074113;28;20028;-78
2023/10/20 00:07:39;;;;;;;27.70;18.77;;;;;;;;;;5068891;28;20415;-78
2023/10/20 00:10:05;;;;;;;27.17;18.38;;;;;;;;;;5057379;28;20040;-78
2023/10/20 00:12:31;;;;;;;26.90;18.70;;;;;;;;;;5072596;28;20491;-78
2023/10/20 00:14:56;;;;;;;27.45;18.73;;;;;;;;;;5066792;28;20028;-78
2023/10/20 00:17:22;;;;;;;28.10;18.88;;;;;;;;;;5050525;28;20466;-79
2023/10/20 00:19:47;;;;;;;26.50;18.52;;;;;;;;;;5079391;28;20123;-78
2023/10/20 00:22:14;;;;;;;26.70;18.70;;;;;;;;;;5062457;28;20032;-78
2023/10/20 00:24:39;;;;;;;25.83;18.35;;;;;;;;;;5072079;28;20905;-78
2023/10/20 00:27:04;;;;;;;26.17;18.45;;;;;;;;;;5069116;28;20028;-78
2023/10/20 00:29:30;;;;;;;27.15;19.33;;;;;;;;;;5068247;28;20426;-78
2023/10/20 00:31:55;;;;;;;27.15;18.85;;;;;;;;;;5056991;28;20392;-78
2023/10/20 00:34:21;;;;;;;26.00;18.50;;;;;;;;;;5054434;28;20028;-78
2023/10/20 00:36:46;;;;;;;28.20;19.00;;;;;;;;;;5055589;28;20055;-78
2023/10/20 00:39:12;;;;;;;29.38;18.95;;;;;;;;;;5056362;28;20029;-78
2023/10/20 00:41:38;;;;;;;26.85;18.63;;;;;;;;;;5069330;28;20637;-78
2023/10/20 00:44:04;;;;;;;26.70;18.52;;;;;;;;;;5054524;28;20085;-78
2023/10/20 00:46:30;;;;;;;28.83;19.15;;;;;;;;;;5057351;28;20032;-78
2023/10/20 00:48:56;;;;;;;27.83;19.77;;;;;;;;;;5080212;28;20069;-78
2023/10/20 00:51:21;;;;;;;27.10;18.27;;;;;;;;;;5066083;28;20116;-77
2023/10/20 00:53:47;;;;;;;27.17;18.17;;;;;;;;;;5049912;28;20116;-78
2023/10/20 00:56:14;;;;;;;26.65;18.13;;;;;;;;;;5059915;28;20434;-78
2023/10/20 00:58:40;;;;;;;24.70;17.23;;;;;;;;;;5044207;28;20577;-78
2023/10/20 01:01:05;;;;;;;25.40;17.23;;;;;;;;;;5053223;28;20040;-78
2023/10/20 01:03:35;;;;;;;25.65;17.73;;;;;;;;;;5046215;28;20094;-79
2023/10/20 01:06:03;;;;;;;24.20;16.58;;;;;;;;;;5053299;28;20032;-78
2023/10/20 01:08:28;;;;;;;28.10;17.80;;;;;;;;;;5055374;28;20037;-77
2023/10/20 01:10:54;;;;;;;25.50;16.88;;;;;;;;;;5056800;28;20033;-77
2023/10/20 01:13:21;;;;;;;25.15;17.30;;;;;;;;;;5054053;28;20025;-78
2023/10/20 01:15:47;;;;;;;;;;;;;;;;;;5041318;28;20075;-78
2023/10/20 01:18:12;;;;;;;26.42;17.50;;;;;;;;;;5073144;28;19920;-78
2023/10/20 01:20:38;;;;;;;24.30;17.30;;;;;;;;;;5073158;28;20038;-78
2023/10/20 01:23:04;;;;;;;24.70;17.33;;;;;;;;;;5074576;28;20040;-78
2023/10/20 01:25:31;;;;;;;27.48;18.20;;;;;;;;;;5057849;28;20037;-78
2023/10/20 01:27:56;;;;;;;25.15;17.70;;;;;;;;;;5072279;28;20032;-78
2023/10/20 01:30:22;;;;;;;26.15;16.92;;;;;;;;;;5062346;28;20040;-77
2023/10/20 01:32:48;;;;;;;24.23;16.83;;;;;;;;;;5074907;27;20036;-78
2023/10/20 01:35:13;;;;;;;25.10;17.13;;;;;;;;;;5071654;28;20655;-78
2023/10/20 01:37:40;;;;;;;25.25;18.35;;;;;;;;;;5058811;28;20036;-78
2023/10/20 01:40:08;;;;;;;24.73;17.35;;;;;;;;;;5079161;28;20491;-77
2023/10/20 01:42:33;;;;;;;23.15;16.73;;;;;;;;;;5073657;28;20573;-78
2023/10/20 01:44:59;;;;;;;26.83;17.90;;;;;;;;;;5074184;28;20037;-78
2023/10/20 01:47:24;;;;;;;26.17;17.20;;;;;;;;;;5073152;28;20044;-78
2023/10/20 01:49:50;;;;;;;24.83;17.27;;;;;;;;;;5059549;28;20033;-78
2023/10/20 01:52:15;;;;;;;24.00;17.38;;;;;;;;;;5084211;28;20105;-78
2023/10/20 01:54:40;;;;;;;23.88;16.10;;;;;;;;;;5061634;28;20044;-78
2023/10/20 01:57:06;;;;;;;25.38;17.50;;;;;;;;;;5056010;28;20110;-78
2023/10/20 01:59:31;;;;;;;25.02;17.27;;;;;;;;;;5074087;28;20063;-78
2023/10/20 02:01:57;;;;;;;24.15;16.40;;;;;;;;;;5059970;28;20036;-78
2023/10/20 02:04:22;;;;;;;24.80;16.70;;;;;;;;;;5084204;28;20032;-78
2023/10/20 02:06:47;;;;;;;22.45;16.42;;;;;;;;;;5060023;28;20484;-78
2023/10/20 02:09:14;;;;;;;23.52;16.33;;;;;;;;;;5066104;28;20195;-78
2023/10/20 02:11:39;;;;;;;21.35;15.23;;;;;;;;;;5070043;28;20546;-77
2023/10/20 02:14:05;;;;;;;23.50;15.13;;;;;;;;;;5059668;28;20032;-77
2023/10/20 02:16:31;;;;;;;21.17;15.63;;;;;;;;;;5059030;28;20039;-78
2023/10/20 02:18:56;;;;;;;22.88;15.68;;;;;;;;;;5066530;28;20119;-78
2023/10/20 02:21:21;;;;;;;23.27;16.30;;;;;;;;;;5073059;28;20127;-77
2023/10/20 02:23:47;;;;;;;21.27;15.48;;;;;;;;;;5072732;28;20541;-78
2023/10/20 02:26:12;;;;;;;20.45;14.48;;;;;;;;;;5058663;28;20052;-78
2023/10/20 02:28:38;;;;;;;22.60;14.32;;;;;;;;;;5071364;28;20036;-78
2023/10/20 02:31:19;;;;;;;21.65;14.80;;;;;;;;;;5056904;28;20109;-77
2023/10/20 02:33:45;;;;;;;20.48;14.02;;;;;;;;;;5063855;28;20476;-79
2023/10/20 02:36:18;;;;;;;21.55;14.40;;;;;;;;;;5039933;28;20157;-78
2023/10/20 02:38:44;;;;;;;21.38;14.00;;;;;;;;;;5038508;28;20083;-79
2023/10/20 02:41:10;;;;;;;20.13;13.93;;;;;;;;;;5044779;28;20132;-78
2023/10/20 02:43:36;;;;;;;17.63;12.77;;;;;;;;;;5037108;28;20528;-78
2023/10/20 02:46:02;;;;;;;17.80;12.18;;;;;;;;;;5037609;28;20029;-77
2023/10/20 02:48:28;;;;;;;18.05;12.40;;;;;;;;;;5039074;28;20492;-77
2023/10/20 02:50:54;;;;;;;17.23;12.35;;;;;;;;;;5062161;28;20392;-77
2023/10/20 02:53:19;;;;;;;18.35;12.40;;;;;;;;;;5043516;28;20028;-77
2023/10/20 02:55:45;;;;;;;17.25;12.35;;;;;;;;;;5042629;28;20953;-78
2023/10/20 02:58:11;;;;;;;18.52;11.90;;;;;;;;;;5060020;28;20029;-77
2023/10/20 03:00:44;;;;;;;17.10;12.27;;;;;;;;;;5051911;28;20063;-77
2023/10/20 03:03:13;;;;;;;17.63;11.57;;;;;;;;;;5043315;28;20099;-78
2023/10/20 03:05:43;;;;;;;15.85;10.75;;;;;;;;;;5045645;28;20116;-77
2023/10/20 03:08:08;;;;;;;16.50;10.30;;;;;;;;;;5050695;28;20043;-78
2023/10/20 03:10:35;;;;;;;15.77;10.30;;;;;;;;;;5036487;28;20041;-77
2023/10/20 03:13:00;;;;;;;13.70;9.02;;;;;;;;;;5053516;28;20040;-78
2023/10/20 03:15:26;;;;;;;12.95;8.65;;;;;;;;;;5050130;28;20082;-77
2023/10/20 03:17:51;;;;;;;13.07;8.60;;;;;;;;;;5053231;28;20043;-77
2023/10/20 03:20:17;;;;;;;12.38;8.02;;;;;;;;;;5052295;28;20056;-78
2023/10/20 03:22:43;;;;;;;11.52;7.82;;;;;;;;;;5057880;28;20412;-77
2023/10/20 03:25:10;;;;;;;11.98;7.85;;;;;;;;;;5050447;28;20033;-77
2023/10/20 03:27:37;;;;;;;10.20;7.15;;;;;;;;;;5040712;28;20037;-77
2023/10/20 03:30:04;;;;;;;11.25;7.10;;;;;;;;;;5054579;28;20024;-76
2023/10/20 03:32:29;;;;;;;11.63;7.43;;;;;;;;;;5050896;28;20485;-77
2023/10/20 03:34:55;;;;;;;10.77;7.13;;;;;;;;;;5039250;28;20036;-77
2023/10/20 03:37:21;;;;;;;11.20;7.25;;;;;;;;;;5067762;28;20028;-78
2023/10/20 03:39:46;;;;;;;10.80;6.97;;;;;;;;;;5066529;28;20035;-77
2023/10/20 03:42:13;;;;;;;11.65;7.22;;;;;;;;;;5069264;28;20043;-77
2023/10/20 03:44:39;;;;;;;10.93;7.13;;;;;;;;;;5082150;28;20036;-77
2023/10/20 03:47:05;;;;;;;11.63;7.32;;;;;;;;;;5072778;28;20039;-78
2023/10/20 03:49:34;;;;;;;10.70;7.05;;;;;;;;;;5069147;28;20036;-77
2023/10/20 03:51:59;;;;;;;10.52;7.55;;;;;;;;;;5071814;28;20408;-77
2023/10/20 03:54:25;;;;;;;10.85;7.28;;;;;;;;;;5059401;28;20037;-78
2023/10/20 03:56:51;;;;;;;11.32;7.47;;;;;;;;;;5053229;28;20537;-78
2023/10/20 03:59:16;;;;;;;11.95;7.50;;;;;;;;;;5038533;28;20059;-78
2023/10/20 04:01:42;;;;;;;13.32;7.85;;;;;;;;;;5036311;28;20152;-79
2023/10/20 04:04:09;;;;;;;11.52;7.93;;;;;;;;;;5050822;28;20194;-78
2023/10/20 04:06:36;;;;;;;11.93;7.60;;;;;;;;;;5052457;28;20033;-79
2023/10/20 04:09:09;;;;;;;11.20;7.80;;;;;;;;;;5052975;28;20313;-78
2023/10/20 04:11:35;;;;;;;12.85;8.48;;;;;;;;;;5051352;28;20037;-79
2023/10/20 04:14:02;;;;;;;13.13;8.75;;;;;;;;;;5040517;28;20164;-78
2023/10/20 04:16:27;;;;;;;13.98;8.55;;;;;;;;;;5049393;28;20143;-79
2023/10/20 04:18:53;;;;;;;14.25;8.98;;;;;;;;;;5054388;28;20095;-78
2023/10/20 04:21:18;;;;;;;14.00;9.30;;;;;;;;;;5049729;28;20099;-79
2023/10/20 04:23:44;;;;;;;14.05;9.38;;;;;;;;;;5041345;28;20049;-79
2023/10/20 04:26:20;;;;;;;14.13;9.00;;;;;;;;;;5021311;28;20384;-79
2023/10/20 04:28:47;;;;;;;15.57;9.90;;;;;;;;;;5061971;28;20089;-79
2023/10/20 05:00:40;;;;;;;17.48;10.38;;;;;;;;;;5076314;28;20082;-78
2023/10/20 05:05:44;;;;;;;13.85;10.48;;;;;;;;;;5069563;28;20028;-79
2023/10/20 05:10:38;;;;;;;15.85;11.93;;;;;;;;;;5068260;28;20475;-78
2023/10/20 05:13:04;;;;;;;15.90;11.45;;;;;;;;;;5056714;28;20032;-78
2023/10/20 05:15:50;;;;;;;16.17;11.77;;;;;;;;;;5054831;28;20447;-77
2023/10/20 05:18:16;;;;;;;16.05;12.05;;;;;;;;;;5051268;28;21061;-78
2023/10/20 05:20:47;;;;;;;17.63;11.82;;;;;;;;;;5059653;28;20044;-78
2023/10/20 05:23:14;;;;;;;16.77;11.60;;;;;;;;;;5060796;28;20040;-78
2023/10/20 05:25:47;;;;;;;15.52;11.60;;;;;;;;;;5052919;28;20538;-77
2023/10/20 05:28:13;;;;;;;15.15;11.18;;;;;;;;;;5045321;28;20091;-78
2023/10/20 05:30:42;;;;;;;17.60;12.00;;;;;;;;;;5052977;28;20071;-80
2023/10/20 05:33:09;;;;;;;18.13;11.82;;;;;;;;;;5059804;28;20086;-78
2023/10/20 05:35:34;;;;;;;19.27;12.80;;;;;;;;;;5065968;28;20036;-79
2023/10/20 05:38:03;;;;;;;18.15;12.77;;;;;;;;;;5045562;28;20029;-78
2023/10/20 05:40:28;;;;;;;21.08;12.55;;;;;;;;;;5051472;28;20052;-78
2023/10/20 05:43:01;;;;;;;18.92;13.35;;;;;;;;;;5051444;28;21092;-80
2023/10/20 05:45:32;;;;;;;18.35;12.75;;;;;;;;;;5033227;28;20066;-78
2023/10/20 05:47:58;;;;;;;18.38;12.52;;;;;;;;;;5048474;28;20555;-79
2023/10/20 05:50:24;;;;;;;18.13;12.63;;;;;;;;;;5031385;28;20167;-77
2023/10/20 05:52:51;;;;;;;17.90;12.75;;;;;;;;;;5039900;28;20040;-79
2023/10/20 05:55:16;;;;;;;18.33;12.77;;;;;;;;;;5043813;28;20032;-78
2023/10/20 05:57:45;;;;;;;20.05;13.27;;;;;;;;;;5042235;28;20565;-79
2023/10/20 06:00:15;;;;;;;21.58;14.52;;;;;;;;;;5021393;28;20032;-86
2023/10/20 06:02:47;;;;;;;21.48;13.88;;;;;;;;;;5031439;28;20078;-86
2023/10/20 06:05:13;;;;;;;22.30;15.45;;;;;;;;;;5032586;28;20043;-84
2023/10/20 06:07:41;;;;;;;20.33;14.05;;;;;;;;;;5032067;28;20033;-85
2023/10/20 06:10:22;;;;;;;21.63;14.02;;;;;;;;;;5018596;28;20099;-84
2023/10/20 06:12:49;;;;;;;21.27;12.70;;;;;;;;;;5020493;28;20459;-78
2023/10/20 06:15:19;;;;;;;21.98;14.02;;;;;;;;;;5013081;28;20112;-80
2023/10/20 06:17:45;;;;;;;19.92;13.18;;;;;;;;;;5035870;28;20536;-78
2023/10/20 06:20:29;;;;;;;19.88;13.07;;;;;;;;;;5030700;28;20480;-79
2023/10/20 06:22:55;;;;;;;21.48;13.70;;;;;;;;;;5034782;28;20489;-79
2023/10/20 06:25:20;;;;;;;23.02;14.30;;;;;;;;;;5015781;28;20037;-81
2023/10/20 06:27:46;;;;;;;20.65;13.70;;;;;;;;;;5042290;28;20042;-79
2023/10/20 06:30:22;;;;;;;19.42;12.82;;;;;;;;;;5054027;28;20404;-79
2023/10/20 06:33:16;;;;;;;20.23;13.95;;;;;;;;;;5034716;28;20044;-78
2023/10/20 06:35:52;;;;;;;22.33;14.10;;;;;;;;;;5038582;28;20041;-78
2023/10/20 06:38:32;;;;;;;21.23;13.32;;;;;;;;;;5035131;28;20102;-77
2023/10/20 06:40:57;;;;;;;23.33;13.95;;;;;;;;;;5051744;28;20463;-78
2023/10/20 06:43:24;;;;;;;21.25;13.80;;;;;;;;;;5025973;28;20067;-77
2023/10/20 06:46:00;;;;;;;22.40;13.75;;;;;;;;;;5062893;28;20067;-78
2023/10/20 06:48:29;;;;;;;21.83;12.90;;;;;;;;;;5075172;28;20048;-76
2023/10/20 06:50:54;;;;;;;52.33;28.40;;;;;;;;;;5054814;28;20051;-78
2023/10/20 06:53:20;;;;;;;21.90;14.07;;;;;;;;;;5053513;28;20036;-77
2023/10/20 06:55:49;;;;;;;24.17;14.73;;;;;;;;;;5041549;28;20220;-78
2023/10/20 06:58:19;;;;;;;21.25;13.77;;;;;;;;;;5061437;28;20388;-78
2023/10/20 07:00:45;;;;;;;23.48;14.63;;;;;;;;;;5043940;28;20448;-77
2023/10/20 07:03:14;;;;;;;21.08;14.00;;;;;;;;;;5052278;28;20507;-78
2023/10/20 07:05:41;;;;;;;25.02;14.43;;;;;;;;;;5047380;28;20036;-78
2023/10/20 07:08:08;;;;;;;23.42;15.07;;;;;;;;;;5059804;28;20908;-79
2023/10/20 07:10:38;;;;;;;28.02;17.17;;;;;;;;;;5070221;27;20036;-77
2023/10/20 07:13:11;;;;;;;30.95;17.63;;;;;;;;;;5042361;28;20045;-79
2023/10/20 07:15:42;;;;;;;19.90;13.18;;;;;;;;;;5061669;28;20395;-79
2023/10/20 07:18:11;;;;;;;17.80;12.88;;;;;;;;;;5060851;28;20094;-79
2023/10/20 07:20:40;;;;;;;18.90;13.32;;;;;;;;;;5065388;28;20729;-79
2023/10/20 07:23:06;;;;;;;18.67;12.70;;;;;;;;;;5042111;28;20581;-79
2023/10/20 07:25:32;;;;;;;19.63;12.80;;;;;;;;;;5022779;28;20041;-78
2023/10/20 07:27:58;;;;;;;22.15;12.57;;;;;;;;;;5046791;28;20384;-77
2023/10/20 07:30:30;;;;;;;19.70;12.55;;;;;;;;;;5034495;28;20061;-77
2023/10/20 07:32:59;;;;;;;17.20;11.70;;;;;;;;;;5028290;28;20041;-77
2023/10/20 07:35:37;;;;;;;17.90;11.77;;;;;;;;;;5052320;28;20801;-77
2023/10/20 07:38:04;;;;;;;35.75;21.00;;;;;;;;;;5078846;28;20051;-79
2023/10/20 07:40:34;;;;;;;22.48;14.30;;;;;;;;;;5053461;28;20101;-77
2023/10/20 07:43:00;;;;;;;19.42;12.45;;;;;;;;;;5060393;28;20047;-77
2023/10/20 07:45:26;;;;;;;19.25;11.65;;;;;;;;;;5070522;28;20032;-77
2023/10/20 07:47:57;;;;;;;18.77;12.00;;;;;;;;;;5039485;28;20389;-80
2023/10/20 07:50:23;;;;;;;20.20;12.50;;;;;;;;;;5036366;28;20044;-77
2023/10/20 07:52:48;;;;;;;18.48;11.95;;;;;;;;;;5057901;28;20036;-77
2023/10/20 07:55:14;;;;;;;17.10;12.00;;;;;;;;;;5054085;28;20040;-78
2023/10/20 07:57:40;;;;;;;16.52;11.18;;;;;;;;;;5054083;28;20040;-77
2023/10/20 08:00:13;;;;;;;18.60;11.05;;;;;;;;;;5070571;28;20028;-78
2023/10/20 08:02:43;;;;;;;17.15;11.35;;;;;;;;;;5070473;28;20059;-78
2023/10/20 08:05:12;;;;;;;18.50;11.45;;;;;;;;;;5071998;28;20496;-79
2023/10/20 08:07:39;;;;;;;17.58;11.55;;;;;;;;;;5069755;28;20174;-78
2023/10/20 08:10:07;;;;;;;15.40;10.43;;;;;;;;;;5057863;28;20050;-78
2023/10/20 08:12:35;;;;;;;15.38;9.82;;;;;;;;;;5078294;28;20089;-79
2023/10/20 08:15:08;;;;;;;15.73;9.95;;;;;;;;;;5044035;28;20626;-78
2023/10/20 08:17:33;;;;;;;23.25;10.35;;;;;;;;;;5030820;28;20067;-76
2023/10/20 08:19:59;;;;;;;15.60;10.48;;;;;;;;;;5057485;28;20456;-77
2023/10/20 08:22:35;;;;;;;14.77;10.02;;;;;;;;;;5066728;28;20453;-79
2023/10/20 08:25:02;;;;;;;16.40;10.63;;;;;;;;;;5030340;28;20118;-79
2023/10/20 08:27:34;;;;;;;13.82;9.40;;;;;;;;;;5054159;28;20036;-78
2023/10/20 08:29:59;;;;;;;18.20;10.80;;;;;;;;;;5055496;28;20055;-79
2023/10/20 08:32:28;;;;;;;15.75;10.55;;;;;;;;;;5070908;28;20451;-77
2023/10/20 08:34:54;;;;;;;16.17;10.68;;;;;;;;;;5056715;28;20036;-78
2023/10/20 08:37:19;;;;;;;14.98;9.82;;;;;;;;;;5071641;28;20036;-78
2023/10/20 08:39:45;;;;;;;13.52;9.25;;;;;;;;;;5080628;28;20075;-78
2023/10/20 08:42:18;;;;;;;20.95;12.85;;;;;;;;;;5058383;28;20122;-78
2023/10/20 08:44:45;;;;;;;36.50;18.85;;;;;;;;;;5047961;28;20052;-76
2023/10/20 08:47:16;;;;;;;14.77;9.15;;;;;;;;;;5046880;28;20090;-77
2023/10/20 08:49:46;;;;;;;13.50;9.38;;;;;;;;;;5063197;28;20048;-78
2023/10/20 08:52:12;;;;;;;14.60;9.68;;;;;;;;;;5050502;28;20036;-78
2023/10/20 08:54:37;;;;;;;15.10;9.63;;;;;;;;;;5049669;28;20106;-79
2023/10/20 08:57:09;;;;;;;16.30;10.23;;;;;;;;;;5037077;28;20033;-77
2023/10/20 08:59:35;;;;;;;19.75;10.20;;;;;;;;;;5045445;28;20468;-77
2023/10/20 09:02:01;;;;;;;14.40;10.40;;;;;;;;;;5014531;28;20124;-78
2023/10/20 09:04:27;;;;;;;16.60;10.77;;;;;;;;;;5037218;28;20041;-78
2023/10/20 09:06:53;;;;;;;14.43;9.95;;;;;;;;;;5033868;28;20504;-77
2023/10/20 09:09:19;;;;;;;14.27;9.40;;;;;;;;;;5039181;28;20036;-77
2023/10/20 09:11:46;;;;;;;15.23;10.68;;;;;;;;;;5036149;28;20044;-77
2023/10/20 09:14:12;;;;;;;15.77;9.93;;;;;;;;;;5037815;28;20037;-77
2023/10/20 09:16:39;;;;;;;14.23;10.07;;;;;;;;;;5059987;28;20046;-77
2023/10/20 09:19:11;;;;;;;15.43;10.38;;;;;;;;;;5073892;28;20036;-76
2023/10/20 09:21:41;;;;;;;15.68;9.77;;;;;;;;;;5065981;28;20036;-79
2023/10/20 09:24:08;;;;;;;15.45;10.20;;;;;;;;;;5072008;28;20388;-77
2023/10/20 09:26:35;;;;;;;13.73;9.02;;;;;;;;;;5064326;28;20036;-78
2023/10/20 09:29:01;;;;;;;17.83;9.63;;;;;;;;;;5073906;28;20473;-77
2023/10/20 09:31:27;;;;;;;14.48;9.60;;;;;;;;;;5056848;28;20032;-79
2023/10/20 09:33:53;;;;;;;25.95;16.33;;;;;;;;;;5060820;28;20488;-79
2023/10/20 09:36:19;;;;;;;18.60;10.57;;;;;;;;;;5062913;28;20035;-77
2023/10/20 09:38:52;;;;;;;14.00;8.70;;;;;;;;;;5057878;28;20452;-77
2023/10/20 09:41:21;;;;;;;15.50;9.25;;;;;;;;;;5048664;28;20076;-77
2023/10/20 09:43:48;;;;;;;12.43;7.97;;;;;;;;;;5075691;28;20491;-77
2023/10/20 09:46:20;;;;;;;13.10;8.95;;;;;;;;;;5072871;28;20056;-77
2023/10/20 09:49:14;;;;;;;12.27;7.70;;;;;;;;;;5069270;28;20043;-78
2023/10/20 09:51:44;;;;;;;13.00;8.38;;;;;;;;;;5048629;28;20075;-78
2023/10/20 09:54:09;;;;;;;12.88;8.40;;;;;;;;;;5045232;28;20032;-77
2023/10/20 09:56:47;;;;;;;35.63;17.30;;;;;;;;;;5041025;28;20033;-78
2023/10/20 09:59:20;;;;;;;13.80;8.55;;;;;;;;;;5023321;28;20041;-76
2023/10/20 10:01:46;;;;;;;12.60;8.57;;;;;;;;;;5039640;28;20043;-79
2023/10/20 10:04:16;;;;;;;12.55;7.95;;;;;;;;;;5024809;28;21141;-80
2023/10/20 10:06:45;;;;;;;12.00;8.10;;;;;;;;;;5043026;28;20086;-77
2023/10/20 10:09:15;;;;;;;12.45;7.70;;;;;;;;;;5020783;28;20102;-77
2023/10/20 10:11:44;;;;;;;12.23;7.70;;;;;;;;;;5037668;28;20488;-77
2023/10/20 10:14:20;;;;;;;11.98;7.47;;;;;;;;;;5033859;28;20428;-78
2023/10/20 10:16:53;;;;;;;11.52;7.40;;;;;;;;;;5026882;28;20033;-77
2023/10/20 10:19:19;;;;;;;11.13;7.18;;;;;;;;;;5013538;28;20060;-78
2023/10/20 10:21:49;;;;;;;10.90;6.85;;;;;;;;;;5017353;28;20390;-79
2023/10/20 10:24:18;;;;;;;11.02;6.97;;;;;;;;;;5033647;28;20067;-78
2023/10/20 10:26:51;;;;;;;10.90;6.40;;;;;;;;;;5026391;28;20503;-79
2023/10/20 10:29:38;;;;;;;12.73;7.30;;;;;;;;;;5062587;28;20035;-79
2023/10/20 10:32:10;;;;;;;9.38;6.35;;;;;;;;;;5071742;28;20047;-78
2023/10/20 10:34:47;;;;;;;11.82;6.70;;;;;;;;;;5061847;28;20032;-78
2023/10/20 10:37:32;;;;;;;9.25;6.15;;;;;;;;;;5055703;28;20047;-79
2023/10/20 10:40:08;;;;;;;9.02;5.95;;;;;;;;;;5057161;28;20044;-79
2023/10/20 10:42:43;;;;;;;10.52;6.50;;;;;;;;;;5070680;28;20044;-78
2023/10/20 10:45:24;;;;;;;11.38;6.35;;;;;;;;;;5071308;27;20058;-78
2023/10/20 10:47:50;;;;;;;8.82;5.85;;;;;;;;;;5069749;28;20041;-77
2023/10/20 10:50:19;;;;;;;10.98;6.00;;;;;;;;;;5063908;28;20032;-76
2023/10/20 10:52:45;;;;;;;9.63;5.60;;;;;;;;;;5070394;28;20127;-77
2023/10/20 10:55:11;;;;;;;13.20;7.82;;;;;;;;;;5058404;28;20123;-78
2023/10/20 10:57:38;;;;;;;9.90;5.93;;;;;;;;;;5069035;28;20126;-79
2023/10/20 11:00:06;;;;;;;9.70;5.27;;;;;;;;;;5051465;28;20044;-78
2023/10/20 11:02:32;;;;;;;8.68;5.30;;;;;;;;;;5061879;28;20032;-79
2023/10/20 11:04:57;;;;;;;9.65;5.55;;;;;;;;;;5088824;28;20044;-78
2023/10/20 11:07:23;;;;;;;10.27;5.55;;;;;;;;;;5063368;28;20475;-78
2023/10/20 11:09:51;;;;;;;8.60;5.82;;;;;;;;;;5054492;28;20028;-77
2023/10/20 11:12:17;;;;;;;8.68;5.22;;;;;;;;;;5075351;28;20510;-77
2023/10/20 11:14:42;;;;;;;8.60;5.38;;;;;;;;;;5057238;28;20041;-78
2023/10/20 11:17:08;;;;;;;7.32;4.95;;;;;;;;;;5048647;28;20040;-77
2023/10/20 11:19:33;;;;;;;8.05;5.15;;;;;;;;;;5056819;28;20115;-78
2023/10/20 11:21:58;;;;;;;9.32;5.13;;;;;;;;;;5054418;28;20068;-78
2023/10/20 11:24:29;;;;;;;8.95;5.43;;;;;;;;;;5071736;28;20044;-80
2023/10/20 11:26:59;;;;;;;8.23;4.63;;;;;;;;;;5063663;28;20035;-77
2023/10/20 11:29:29;;;;;;;9.85;5.10;;;;;;;;;;5050627;28;20032;-77
2023/10/20 11:31:56;;;;;;;7.88;4.55;;;;;;;;;;5041922;28;20026;-77
2023/10/20 11:34:22;;;;;;;8.35;5.20;;;;;;;;;;5050822;28;20493;-77
2023/10/20 11:36:48;;;;;;;16.67;9.05;;;;;;;;;;5060577;28;20036;-77
2023/10/20 11:39:15;;;;;;;11.48;6.57;;;;;;;;;;5073087;28;20161;-79
2023/10/20 11:41:40;;;;;;;6.57;4.50;;;;;;;;;;5057821;28;20604;-79
2023/10/20 11:44:06;;;;;;;7.40;4.32;;;;;;;;;;5070377;28;20044;-78
2023/10/20 11:46:31;;;;;;;7.65;4.20;;;;;;;;;;5057527;28;20035;-78
2023/10/20 11:48:57;;;;;;;6.40;3.72;;;;;;;;;;5072576;28;20036;-77
2023/10/20 11:51:22;;;;;;;7.13;4.32;;;;;;;;;;5035765;28;20033;-77
2023/10/20 11:53:47;;;;;;;7.78;4.13;;;;;;;;;;5052462;28;20045;-78
2023/10/20 11:56:13;;;;;;;7.07;4.40;;;;;;;;;;5053482;28;20115;-78
2023/10/20 11:58:38;;;;;;;6.80;4.47;;;;;;;;;;5018324;28;20518;-78
2023/10/20 12:01:04;;;;;;;7.18;4.10;;;;;;;;;;5067608;28;20078;-78
2023/10/20 12:03:29;;;;;;;5.80;3.83;;;;;;;;;;5038185;28;20049;-78
2023/10/20 12:05:55;;;;;;;8.18;4.55;;;;;;;;;;5039159;28;20041;-78
2023/10/20 12:08:20;;;;;;;5.68;3.75;;;;;;;;;;5049394;28;20036;-78
2023/10/20 12:10:46;;;;;;;6.60;3.45;;;;;;;;;;5049992;28;20400;-78
2023/10/20 12:13:12;;;;;;;5.97;3.53;;;;;;;;;;5037583;28;20389;-77
2023/10/20 12:15:38;;;;;;;6.63;3.78;;;;;;;;;;5034987;28;20029;-78
2023/10/20 12:18:05;;;;;;;6.97;3.50;;;;;;;;;;5048547;28;20095;-78
2023/10/20 12:20:31;;;;;;;5.35;3.60;;;;;;;;;;5053619;28;20082;-78
2023/10/20 12:22:58;;;;;;;5.38;3.35;;;;;;;;;;5050074;28;20036;-78
2023/10/20 12:25:25;;;;;;;6.32;3.63;;;;;;;;;;5032989;28;20043;-78
2023/10/20 12:27:51;;;;;;;6.57;3.75;;;;;;;;;;5069842;28;20037;-78
2023/10/20 12:30:17;;;;;;;6.78;3.33;;;;;;;;;;5066127;28;20394;-78
2023/10/20 12:32:43;;;;;;;5.70;3.38;;;;;;;;;;5068658;28;20033;-78
2023/10/20 12:35:11;;;;;;;5.72;3.42;;;;;;;;;;5052897;28;20521;-79
2023/10/20 12:37:37;;;;;;;5.05;3.03;;;;;;;;;;5068577;28;20035;-81
2023/10/20 12:40:03;;;;;;;5.63;2.92;;;;;;;;;;5073317;28;20123;-79
2023/10/20 12:42:29;;;;;;;5.18;3.17;;;;;;;;;;5048202;28;20071;-79
2023/10/20 12:44:55;;;;;;;6.95;3.40;;;;;;;;;;5068735;28;20037;-79
2023/10/20 12:47:22;;;;;;;6.10;3.20;;;;;;;;;;5041192;28;20032;-79
2023/10/20 12:49:48;;;;;;;5.80;2.85;;;;;;;;;;5080126;28;20042;-80
2023/10/20 12:52:13;;;;;;;5.72;3.33;;;;;;;;;;5070093;28;20040;-78
2023/10/20 12:54:39;;;;;;;5.55;3.28;;;;;;;;;;5046212;28;20037;-80
2023/10/20 12:57:07;;;;;;;4.40;2.63;;;;;;;;;;5037143;28;20481;-79
2023/10/20 12:59:33;;;;;;;5.47;3.00;;;;;;;;;;5043633;28;20625;-78
2023/10/20 13:01:59;;;;;;;4.70;2.60;;;;;;;;;;5051302;28;20428;-79
2023/10/20 13:04:25;;;;;;;5.90;3.13;;;;;;;;;;5051698;28;20431;-80
2023/10/20 13:06:50;;;;;;;3.97;2.50;;;;;;;;;;5050287;28;20040;-79
2023/10/20 13:09:17;;;;;;;5.03;3.08;;;;;;;;;;5039709;28;20032;-79
2023/10/20 13:11:42;;;;;;;4.82;2.80;;;;;;;;;;5032806;28;20123;-79
2023/10/20 13:14:28;;;;;;;24.42;11.23;;;;;;;;;;5053023;28;20151;-79
2023/10/20 13:16:53;;;;;;;5.40;3.60;;;;;;;;;;5015342;28;20034;-80
2023/10/20 13:19:19;;;;;;;4.55;2.35;;;;;;;;;;4989095;28;20037;-80
2023/10/20 13:21:45;;;;;;;7.95;4.00;;;;;;;;;;5000725;28;20038;-79
2023/10/20 13:24:13;;;;;;;4.63;2.70;;;;;;;;;;4998356;28;20037;-79
2023/10/20 13:26:39;;;;;;;5.65;3.05;;;;;;;;;;4998949;28;20041;-80
2023/10/20 13:29:10;;;;;;;6.15;2.78;;;;;;;;;;5001943;28;20037;-81
2023/10/20 13:31:38;;;;;;;5.32;2.83;;;;;;;;;;4985183;28;20029;-80
2023/10/20 13:34:13;;;;;;;5.18;2.90;;;;;;;;;;5000971;28;20682;-81
2023/10/20 13:36:38;;;;;;;5.00;2.40;;;;;;;;;;5011626;28;20065;-78
2023/10/20 13:39:07;;;;;;;4.13;2.40;;;;;;;;;;5016088;28;20148;-77
2023/10/20 13:41:32;;;;;;;4.85;2.55;;;;;;;;;;5010929;28;20111;-80
2023/10/20 13:43:58;;;;;;;4.57;2.40;;;;;;;;;;5029313;28;20061;-78
2023/10/20 13:46:24;;;;;;;4.65;2.53;;;;;;;;;;5006063;28;20449;-79
2023/10/20 13:48:49;;;;;;;4.57;2.60;;;;;;;;;;5021447;28;20413;-77
2023/10/20 13:51:15;;;;;;;3.80;2.25;;;;;;;;;;5011716;28;20552;-78
2023/10/20 13:53:40;;;;;;;4.22;2.38;;;;;;;;;;5032813;28;20044;-78
2023/10/20 13:56:06;;;;;;;4.13;2.00;;;;;;;;;;5051846;28;20026;-78
2023/10/20 13:58:31;;;;;;;5.90;3.00;;;;;;;;;;5035349;28;20124;-78
2023/10/20 14:01:00;;;;;;;10.00;4.88;;;;;;;;;;5043047;28;20033;-78
2023/10/20 14:03:29;;;;;;;4.85;2.55;;;;;;;;;;5044127;28;20043;-77
2023/10/20 14:05:55;;;;;;;4.68;2.20;;;;;;;;;;5035586;28;20032;-79
2023/10/20 14:08:21;;;;;;;4.80;2.53;;;;;;;;;;5045366;28;20040;-79
2023/10/20 14:10:48;;;;;;;5.18;2.50;;;;;;;;;;5074781;28;20047;-78
2023/10/20 14:13:14;;;;;;;4.00;2.20;;;;;;;;;;5057076;28;20040;-79
2023/10/20 14:15:42;;;;;;;4.43;2.40;;;;;;;;;;5073176;28;20402;-79
2023/10/20 14:18:07;;;;;;;;;;;;;;;;;;5072722;28;20568;-78
2023/10/20 14:20:33;;;;;;;3.50;1.90;;;;;;;;;;5073133;28;19927;-78
2023/10/20 14:22:58;;;;;;;3.50;1.95;;;;;;;;;;5073112;28;20047;-79
2023/10/20 14:25:24;;;;;;;4.22;1.95;;;;;;;;;;5072840;28;20104;-78
2023/10/20 14:27:49;;;;;;;4.80;2.13;;;;;;;;;;5073091;28;20028;-78
2023/10/20 14:30:14;;;;;;;3.70;2.10;;;;;;;;;;5058704;28;20028;-79
2023/10/20 14:32:40;;;;;;;4.20;2.30;;;;;;;;;;5082093;28;20044;-80
2023/10/20 14:35:06;;;;;;;3.95;1.98;;;;;;;;;;5075572;28;20029;-79
2023/10/20 14:37:32;;;;;;;3.33;2.00;;;;;;;;;;5072462;28;20036;-77
2023/10/20 14:39:58;;;;;;;3.50;2.00;;;;;;;;;;5058914;28;20587;-79
2023/10/20 14:42:26;;;;;;;3.88;2.08;;;;;;;;;;5046615;28;20044;-79
2023/10/20 14:44:52;;;;;;;4.57;2.17;;;;;;;;;;5049353;28;20106;-79
2023/10/20 14:47:18;;;;;;;4.78;2.67;;;;;;;;;;5052804;28;20025;-79
2023/10/20 14:49:44;;;;;;;4.10;2.03;;;;;;;;;;5043612;28;20048;-79
2023/10/20 14:52:09;;;;;;;4.53;2.08;;;;;;;;;;5053602;28;20090;-78
2023/10/20 14:54:34;;;;;;;3.88;2.08;;;;;;;;;;5046584;28;20039;-78
2023/10/20 14:57:00;;;;;;;3.90;2.13;;;;;;;;;;5050393;28;20033;-78
2023/10/20 14:59:25;;;;;;;3.63;2.05;;;;;;;;;;5053141;28;20106;-79
2023/10/20 15:01:52;;;;;;;4.72;2.00;;;;;;;;;;5038259;28;20029;-79
2023/10/20 15:04:17;;;;;;;3.67;1.90;;;;;;;;;;5037238;28;20094;-80